Time;durP1;ratioP1;P1;durP2;ratioP2;P2;SDS_P1;SDS_P2;PMS_P1;PMS_P2;Temp;Humidity;BMP_temperature;BMP_pressure;BME280_temperature;BME280_humidity;BME280_pressure;Samples;Min_cycle;Max_cycle;Signal;HPM_P1;HPM_P2
2022/06/30 00:02:23;;;;;;;39.75;20.13;;;;;;;;;;4972992;28;20097;-78
2022/06/30 00:04:49;;;;;;;33.40;18.45;;;;;;;;;;4972312;28;20057;-74
2022/06/30 00:07:17;;;;;;;47.45;19.88;;;;;;;;;;4971963;28;20035;-74
2022/06/30 00:09:44;;;;;;;35.00;19.20;;;;;;;;;;4971624;28;20051;-71
2022/06/30 00:12:11;;;;;;;52.97;19.73;;;;;;;;;;4971779;28;20035;-73
2022/06/30 00:14:37;;;;;;;63.92;21.80;;;;;;;;;;4972474;28;20039;-78
2022/06/30 00:17:05;;;;;;;46.33;20.98;;;;;;;;;;4971580;28;20090;-75
2022/06/30 00:19:32;;;;;;;29.65;19.27;;;;;;;;;;4971698;28;20042;-75
2022/06/30 00:21:59;;;;;;;39.65;19.05;;;;;;;;;;4971820;28;20043;-75
2022/06/30 00:24:25;;;;;;;46.33;20.52;;;;;;;;;;4971315;28;20055;-73
2022/06/30 00:26:53;;;;;;;27.15;18.30;;;;;;;;;;4978949;28;20051;-81
2022/06/30 00:29:19;;;;;;;39.05;19.80;;;;;;;;;;4976850;28;20043;-78
2022/06/30 00:31:46;;;;;;;33.58;20.05;;;;;;;;;;4976644;28;20046;-81
2022/06/30 00:34:13;;;;;;;38.88;20.90;;;;;;;;;;4976762;28;20109;-81
2022/06/30 00:36:40;;;;;;;49.67;20.52;;;;;;;;;;4977434;28;20039;-74
2022/06/30 00:39:07;;;;;;;65.60;20.67;;;;;;;;;;4974680;28;20039;-71
2022/06/30 00:41:38;;;;;;;30.83;21.38;;;;;;;;;;4976061;28;20081;-69
2022/06/30 00:44:04;;;;;;;55.45;21.00;;;;;;;;;;4974826;28;20049;-74
2022/06/30 00:46:31;;;;;;;57.47;21.77;;;;;;;;;;4973590;28;20045;-72
2022/06/30 00:48:58;;;;;;;28.63;19.98;;;;;;;;;;4974789;28;20081;-72
2022/06/30 00:51:25;;;;;;;65.93;22.15;;;;;;;;;;4974866;28;20050;-75
2022/06/30 00:53:52;;;;;;;44.50;22.08;;;;;;;;;;4975531;28;20042;-73
2022/06/30 00:56:20;;;;;;;41.30;21.08;;;;;;;;;;4975050;28;20035;-73
2022/06/30 00:58:48;;;;;;;43.60;22.38;;;;;;;;;;4974457;28;20161;-73
2022/06/30 01:04:12;;;;;;;43.60;22.65;;;;;;;;;;4860669;29;20148;-74
2022/06/30 01:06:39;;;;;;;43.28;22.27;;;;;;;;;;4901535;29;22329;-73
2022/06/30 01:09:06;;;;;;;44.03;23.83;;;;;;;;;;4902592;29;20095;-74
2022/06/30 01:14:19;;;;;;;48.35;23.15;;;;;;;;;;4901816;29;20122;-73
2022/06/30 01:16:46;;;;;;;32.22;22.40;;;;;;;;;;4901667;29;20044;-70
2022/06/30 01:19:32;;;;;;;43.85;23.27;;;;;;;;;;4902080;29;20051;-71
2022/06/30 01:22:16;;;;;;;48.40;22.83;;;;;;;;;;4902152;29;20031;-71
2022/06/30 01:24:42;;;;;;;31.38;21.55;;;;;;;;;;4901965;29;20496;-73
2022/06/30 01:27:09;;;;;;;40.75;21.70;;;;;;;;;;4902199;29;20123;-71
2022/06/30 01:29:35;;;;;;;50.38;22.35;;;;;;;;;;4900473;29;20525;-71
2022/06/30 01:32:02;;;;;;;42.70;22.50;;;;;;;;;;4904987;29;20497;-71
2022/06/30 01:34:29;;;;;;;49.22;23.02;;;;;;;;;;4912409;29;20052;-73
2022/06/30 01:36:56;;;;;;;54.67;23.20;;;;;;;;;;4906340;29;20048;-71
2022/06/30 01:39:23;;;;;;;40.42;21.58;;;;;;;;;;4901908;29;20041;-72
2022/06/30 01:41:49;;;;;;;44.25;21.58;;;;;;;;;;4901377;29;20127;-71
2022/06/30 01:44:16;;;;;;;48.67;22.83;;;;;;;;;;4897921;29;20060;-71
2022/06/30 01:46:47;;;;;;;32.28;21.25;;;;;;;;;;4916610;29;20048;-72
2022/06/30 01:49:14;;;;;;;37.17;22.10;;;;;;;;;;4904715;29;20104;-71
2022/06/30 01:51:41;;;;;;;50.67;22.08;;;;;;;;;;4901334;29;20047;-71
2022/06/30 01:54:08;;;;;;;40.67;23.08;;;;;;;;;;4904225;29;20056;-69
2022/06/30 01:56:38;;;;;;;81.65;24.75;;;;;;;;;;4915775;29;20044;-69
2022/06/30 01:59:06;;;;;;;35.83;20.90;;;;;;;;;;4898580;29;20045;-69
2022/06/30 02:01:33;;;;;;;52.28;23.20;;;;;;;;;;4900969;29;20045;-70
2022/06/30 02:04:46;;;;;;;36.85;20.88;;;;;;;;;;4883112;29;20053;-70
2022/06/30 02:06:47;;;;;;;35.33;19.80;;;;;;;;;;4864567;29;20045;-71
2022/06/30 02:09:14;;;;;;;43.80;22.83;;;;;;;;;;4885909;29;20576;-71
2022/06/30 02:11:41;;;;;;;53.08;22.92;;;;;;;;;;4897003;29;20077;-71
2022/06/30 02:14:08;;;;;;;29.67;22.00;;;;;;;;;;4879887;29;20049;-71
2022/06/30 02:16:34;;;;;;;41.05;22.15;;;;;;;;;;4881958;29;20105;-72
2022/06/30 02:19:01;;;;;;;49.45;21.48;;;;;;;;;;4881859;29;20045;-73
2022/06/30 02:21:28;;;;;;;36.80;21.67;;;;;;;;;;4882691;29;20117;-72
2022/06/30 02:23:54;;;;;;;45.90;19.88;;;;;;;;;;4882276;29;20048;-70
2022/06/30 02:26:21;;;;;;;47.97;21.50;;;;;;;;;;4878769;29;20044;-73
2022/06/30 02:28:48;;;;;;;29.52;19.88;;;;;;;;;;4881893;29;20049;-71
2022/06/30 02:31:15;;;;;;;32.33;20.55;;;;;;;;;;4865856;29;20045;-71
2022/06/30 02:33:42;;;;;;;41.80;20.08;;;;;;;;;;4872479;29;20093;-73
2022/06/30 02:36:09;;;;;;;37.20;19.65;;;;;;;;;;4881991;29;20060;-71
2022/06/30 02:38:36;;;;;;;52.17;19.38;;;;;;;;;;4864063;29;20487;-72
2022/06/30 02:41:02;;;;;;;59.88;20.45;;;;;;;;;;4893189;29;20054;-65
2022/06/30 02:43:29;;;;;;;39.60;18.65;;;;;;;;;;4883470;29;20557;-65
2022/06/30 02:45:56;;;;;;;54.33;19.83;;;;;;;;;;4855259;29;20052;-74
2022/06/30 02:48:22;;;;;;;32.15;18.23;;;;;;;;;;4880725;29;20041;-72
2022/06/30 02:50:49;;;;;;;55.80;19.38;;;;;;;;;;4881827;29;20045;-67
2022/06/30 02:53:16;;;;;;;38.03;16.60;;;;;;;;;;4878512;29;20049;-67
2022/06/30 02:55:42;;;;;;;25.33;17.77;;;;;;;;;;4892181;29;20572;-69
2022/06/30 02:58:09;;;;;;;38.90;16.63;;;;;;;;;;4891975;29;20123;-70
2022/06/30 03:00:36;;;;;;;38.22;17.33;;;;;;;;;;4890053;29;20040;-71
2022/06/30 03:03:02;;;;;;;42.42;18.08;;;;;;;;;;4880512;29;20052;-69
2022/06/30 03:05:29;;;;;;;51.05;18.65;;;;;;;;;;4878847;29;20068;-73
2022/06/30 03:07:55;;;;;;;40.60;16.83;;;;;;;;;;4879905;29;20045;-72
2022/06/30 03:10:22;;;;;;;28.77;16.73;;;;;;;;;;4881777;29;20409;-70
2022/06/30 03:12:49;;;;;;;32.55;17.25;;;;;;;;;;4881905;29;20489;-70
2022/06/30 03:15:15;;;;;;;28.65;17.42;;;;;;;;;;4881544;29;20100;-74
2022/06/30 03:17:42;;;;;;;43.40;17.08;;;;;;;;;;4880520;29;20044;-72
2022/06/30 03:20:09;;;;;;;49.80;19.08;;;;;;;;;;4878088;29;20520;-72
2022/06/30 03:22:35;;;;;;;28.58;16.23;;;;;;;;;;4880623;29;20116;-75
2022/06/30 03:25:02;;;;;;;50.47;19.58;;;;;;;;;;4881054;29;20077;-76
2022/06/30 03:27:29;;;;;;;44.20;21.40;;;;;;;;;;4881156;29;20041;-72
2022/06/30 03:29:56;;;;;;;60.90;21.20;;;;;;;;;;4881267;29;20131;-71
2022/06/30 03:32:22;;;;;;;75.63;22.10;;;;;;;;;;4885511;29;20509;-70
2022/06/30 03:34:49;;;;;;;41.20;20.05;;;;;;;;;;4880091;29;20116;-70
2022/06/30 03:37:15;;;;;;;33.28;18.05;;;;;;;;;;4880999;29;20553;-69
2022/06/30 03:39:42;;;;;;;38.88;20.20;;;;;;;;;;4881068;29;20128;-69
2022/06/30 03:42:09;;;;;;;42.47;20.38;;;;;;;;;;4880957;29;20049;-70
2022/06/30 03:44:36;;;;;;;44.33;18.63;;;;;;;;;;4893743;29;20057;-70
2022/06/30 03:47:02;;;;;;;65.90;20.02;;;;;;;;;;4878910;29;20045;-70
2022/06/30 03:49:29;;;;;;;33.08;18.17;;;;;;;;;;4881077;29;20084;-67
2022/06/30 03:51:56;;;;;;;37.63;18.80;;;;;;;;;;4881288;29;20379;-71
2022/06/30 03:54:23;;;;;;;136.90;25.52;;;;;;;;;;4880883;29;20118;-71
2022/06/30 03:56:50;;;;;;;42.58;19.52;;;;;;;;;;4880701;29;20044;-71
2022/06/30 03:59:18;;;;;;;33.78;20.55;;;;;;;;;;4877701;29;20105;-72
2022/06/30 04:01:44;;;;;;;33.53;19.90;;;;;;;;;;4884523;29;20049;-72
2022/06/30 04:04:11;;;;;;;58.45;20.67;;;;;;;;;;4884112;29;20064;-71
2022/06/30 04:06:38;;;;;;;35.13;19.33;;;;;;;;;;4884288;29;20434;-71
2022/06/30 04:09:04;;;;;;;44.50;20.00;;;;;;;;;;4896095;29;20055;-72
2022/06/30 04:11:31;;;;;;;72.53;20.58;;;;;;;;;;4889673;29;20119;-72
2022/06/30 04:13:58;;;;;;;41.20;17.90;;;;;;;;;;4883257;29;20045;-73
2022/06/30 04:16:24;;;;;;;46.47;19.25;;;;;;;;;;4867631;29;20577;-73
2022/06/30 04:22:07;;;;;;;58.33;21.70;;;;;;;;;;4884026;29;20045;-69
2022/06/30 04:24:34;;;;;;;46.60;18.83;;;;;;;;;;4884206;29;20056;-67
2022/06/30 04:27:01;;;;;;;46.60;19.77;;;;;;;;;;4883862;29;20036;-70
2022/06/30 04:29:27;;;;;;;73.75;22.33;;;;;;;;;;4895912;29;20085;-70
2022/06/30 04:34:39;;;;;;;48.15;19.75;;;;;;;;;;4884003;29;20053;-71
2022/06/30 04:37:06;;;;;;;40.20;19.25;;;;;;;;;;4884211;29;20041;-76
2022/06/30 04:39:33;;;;;;;67.28;20.73;;;;;;;;;;4883849;29;20093;-75
2022/06/30 04:41:59;;;;;;;35.75;17.35;;;;;;;;;;4883483;29;20509;-73
2022/06/30 04:44:26;;;;;;;55.65;18.50;;;;;;;;;;4880630;29;20132;-76
2022/06/30 04:46:53;;;;;;;34.15;17.27;;;;;;;;;;4883297;29;20051;-71
2022/06/30 04:49:19;;;;;;;30.60;15.95;;;;;;;;;;4893140;29;20064;-66
2022/06/30 04:51:46;;;;;;;40.67;17.98;;;;;;;;;;4883757;29;20041;-69
2022/06/30 04:54:13;;;;;;;47.78;18.10;;;;;;;;;;4883659;29;20043;-68
2022/06/30 04:56:40;;;;;;;80.25;17.50;;;;;;;;;;4881928;29;20531;-68
2022/06/30 04:59:06;;;;;;;39.85;14.13;;;;;;;;;;4881354;29;20037;-68
2022/06/30 05:01:33;;;;;;;33.88;13.38;;;;;;;;;;4883513;29;20049;-68
2022/06/30 05:04:00;;;;;;;89.68;18.23;;;;;;;;;;4883234;29;20056;-68
2022/06/30 05:06:27;;;;;;;70.00;15.85;;;;;;;;;;4886637;29;20052;-67
2022/06/30 05:08:54;;;;;;;47.17;15.35;;;;;;;;;;4895330;29;20033;-67
2022/06/30 05:11:20;;;;;;;41.80;14.15;;;;;;;;;;4885507;29;20048;-67
2022/06/30 05:13:47;;;;;;;52.65;14.52;;;;;;;;;;4882997;29;20085;-67
2022/06/30 05:16:14;;;;;;;49.22;15.18;;;;;;;;;;4882700;29;20048;-67
2022/06/30 05:18:40;;;;;;;32.45;12.88;;;;;;;;;;4883469;29;20041;-67
2022/06/30 05:21:07;;;;;;;37.22;14.93;;;;;;;;;;4866581;29;20485;-68
2022/06/30 05:23:34;;;;;;;54.08;14.55;;;;;;;;;;4880864;29;20393;-68
2022/06/30 05:28:46;;;;;;;53.33;14.48;;;;;;;;;;4883241;29;20044;-68
2022/06/30 05:31:18;;;;;;;20.42;12.20;;;;;;;;;;4895184;29;20052;-71
2022/06/30 05:33:46;;;;;;;22.58;12.90;;;;;;;;;;4882538;29;20787;-72
2022/06/30 05:36:13;;;;;;;45.40;14.38;;;;;;;;;;4882277;29;20116;-73
2022/06/30 05:38:39;;;;;;;27.25;14.27;;;;;;;;;;4881971;29;20055;-68
2022/06/30 05:41:06;;;;;;;49.13;14.85;;;;;;;;;;4880409;29;20458;-68
2022/06/30 05:43:33;;;;;;;30.00;13.30;;;;;;;;;;4882590;29;20048;-71
2022/06/30 05:46:00;;;;;;;34.00;13.63;;;;;;;;;;4882600;29;20386;-69
2022/06/30 05:48:26;;;;;;;49.97;15.13;;;;;;;;;;4881665;29;20068;-71
2022/06/30 05:50:53;;;;;;;44.28;14.35;;;;;;;;;;4882953;29;20048;-71
2022/06/30 05:53:20;;;;;;;26.83;13.50;;;;;;;;;;4879050;29;20041;-72
2022/06/30 05:55:47;;;;;;;40.92;13.63;;;;;;;;;;4893195;29;20048;-72
2022/06/30 05:58:16;;;;;;;69.85;15.65;;;;;;;;;;4886221;29;20552;-72
2022/06/30 06:00:43;;;;;;;32.53;12.60;;;;;;;;;;4882734;29;20092;-70
2022/06/30 06:03:09;;;;;;;35.92;12.45;;;;;;;;;;4884893;29;20068;-79
2022/06/30 06:05:36;;;;;;;44.35;12.88;;;;;;;;;;4896882;29;20055;-77
2022/06/30 06:08:04;;;;;;;32.75;13.05;;;;;;;;;;4880820;29;20494;-76
2022/06/30 06:10:31;;;;;;;33.33;12.60;;;;;;;;;;4883714;29;20486;-77
2022/06/30 06:12:57;;;;;;;43.47;13.40;;;;;;;;;;4888303;29;20101;-76
2022/06/30 06:15:24;;;;;;;28.63;12.98;;;;;;;;;;4882641;29;20052;-78
2022/06/30 06:17:51;;;;;;;286.23;29.50;;;;;;;;;;4882324;29;20155;-76
2022/06/30 06:20:18;;;;;;;33.92;13.40;;;;;;;;;;4879163;29;20101;-73
2022/06/30 06:22:45;;;;;;;51.13;13.10;;;;;;;;;;4882235;29;20044;-77
2022/06/30 06:25:13;;;;;;;92.15;15.88;;;;;;;;;;4883678;29;20075;-77
2022/06/30 06:27:40;;;;;;;29.35;11.57;;;;;;;;;;4863645;29;20067;-78
2022/06/30 06:30:07;;;;;;;38.30;12.73;;;;;;;;;;4877832;29;20052;-77
2022/06/30 06:32:34;;;;;;;72.65;15.68;;;;;;;;;;4887043;29;20494;-78
2022/06/30 06:35:02;;;;;;;21.63;11.10;;;;;;;;;;4880477;29;20045;-77
2022/06/30 06:37:36;;;;;;;56.53;12.52;;;;;;;;;;4881483;29;20053;-78
2022/06/30 06:40:03;;;;;;;31.17;11.23;;;;;;;;;;4881335;29;20109;-75
2022/06/30 06:42:29;;;;;;;195.18;21.05;;;;;;;;;;4881470;29;20037;-76
2022/06/30 06:44:56;;;;;;;58.00;13.63;;;;;;;;;;4865612;29;20056;-75
2022/06/30 06:47:23;;;;;;;36.25;12.32;;;;;;;;;;4878328;29;20041;-77
2022/06/30 06:49:49;;;;;;;27.15;11.50;;;;;;;;;;4881187;29;20470;-77
2022/06/30 06:52:16;;;;;;;30.77;11.60;;;;;;;;;;4881864;29;20061;-78
2022/06/30 06:54:43;;;;;;;44.45;12.52;;;;;;;;;;4881616;29;20065;-77
2022/06/30 06:57:09;;;;;;;30.10;12.18;;;;;;;;;;4887692;29;20045;-77
2022/06/30 06:59:37;;;;;;;50.70;12.70;;;;;;;;;;4879388;29;20064;-76
2022/06/30 07:02:04;;;;;;;32.55;11.82;;;;;;;;;;4888413;29;20048;-78
2022/06/30 07:04:31;;;;;;;47.75;13.32;;;;;;;;;;4888039;29;20508;-77
2022/06/30 07:06:58;;;;;;;47.13;13.65;;;;;;;;;;4882596;29;20093;-77
2022/06/30 07:09:24;;;;;;;62.00;14.57;;;;;;;;;;4881321;29;20039;-77
2022/06/30 07:11:51;;;;;;;28.52;11.82;;;;;;;;;;4887996;29;20037;-77
2022/06/30 07:14:18;;;;;;;41.33;14.10;;;;;;;;;;4902662;29;20043;-73
2022/06/30 07:16:45;;;;;;;79.57;15.05;;;;;;;;;;4880697;29;20124;-73
2022/06/30 07:19:12;;;;;;;82.22;14.05;;;;;;;;;;4884477;29;20049;-76
2022/06/30 07:21:42;;;;;;;35.50;12.95;;;;;;;;;;4864652;29;20052;-68
2022/06/30 07:24:09;;;;;;;52.88;14.25;;;;;;;;;;4880678;29;20047;-71
2022/06/30 07:26:36;;;;;;;149.18;18.92;;;;;;;;;;4878596;29;20037;-73
2022/06/30 07:29:03;;;;;;;55.22;13.10;;;;;;;;;;4883702;29;20045;-71
2022/06/30 07:31:46;;;;;;;;;;;;;;;;;;4884675;29;20045;-70
2022/06/30 07:34:13;;;;;;;30.95;12.20;;;;;;;;;;4885238;29;20407;-67
2022/06/30 07:36:41;;;;;;;36.22;13.25;;;;;;;;;;4883984;29;20044;-74
2022/06/30 07:39:08;;;;;;;60.03;14.45;;;;;;;;;;4884978;29;20630;-74
2022/06/30 07:41:34;;;;;;;68.53;15.05;;;;;;;;;;4882195;29;20086;-74
2022/06/30 07:44:01;;;;;;;40.92;14.00;;;;;;;;;;4866921;29;20052;-73
2022/06/30 07:46:28;;;;;;;33.58;12.52;;;;;;;;;;4884379;29;20052;-73
2022/06/30 07:49:00;;;;;;;66.43;15.07;;;;;;;;;;4884231;29;20399;-74
2022/06/30 07:51:27;;;;;;;56.67;13.75;;;;;;;;;;4884205;29;20071;-74
2022/06/30 07:54:12;;;;;;;127.68;19.20;;;;;;;;;;4896246;29;20681;-74
2022/06/30 07:56:49;;;;;;;74.72;15.85;;;;;;;;;;4882820;29;20076;-75
2022/06/30 07:59:37;;;;;;;62.60;15.77;;;;;;;;;;4883834;29;20394;-61
2022/06/30 08:02:03;;;;;;;47.67;14.45;;;;;;;;;;4884262;29;20133;-59
2022/06/30 08:04:30;;;;;;;32.30;13.68;;;;;;;;;;4898423;29;20505;-59
2022/06/30 08:06:57;;;;;;;34.65;12.75;;;;;;;;;;4917839;29;20048;-59
2022/06/30 08:09:42;;;;;;;38.97;13.10;;;;;;;;;;4917748;29;20041;-59
2022/06/30 08:12:10;;;;;;;52.70;13.75;;;;;;;;;;4918029;29;20048;-59
2022/06/30 08:14:37;;;;;;;134.00;19.13;;;;;;;;;;4917953;29;20131;-59
2022/06/30 08:17:04;;;;;;;70.15;15.07;;;;;;;;;;4917329;29;20556;-60
2022/06/30 08:19:30;;;;;;;28.27;12.32;;;;;;;;;;4917257;29;20040;-59
2022/06/30 08:21:57;;;;;;;41.25;12.85;;;;;;;;;;4917896;29;20067;-60
2022/06/30 08:24:23;;;;;;;27.02;11.77;;;;;;;;;;4917510;29;20099;-59
2022/06/30 08:26:50;;;;;;;38.17;12.65;;;;;;;;;;4917612;29;20074;-59
2022/06/30 08:29:17;;;;;;;25.73;11.13;;;;;;;;;;4918575;29;20040;-59
2022/06/30 08:31:44;;;;;;;48.72;13.13;;;;;;;;;;4900552;29;20063;-59
2022/06/30 08:34:10;;;;;;;32.47;12.43;;;;;;;;;;4916073;29;20467;-59
2022/06/30 08:36:37;;;;;;;37.65;12.50;;;;;;;;;;4917388;29;20048;-59
2022/06/30 08:39:04;;;;;;;31.27;12.07;;;;;;;;;;4917621;29;20039;-59
2022/06/30 08:44:17;;;;;;;30.33;12.55;;;;;;;;;;4918425;29;20051;-59
2022/06/30 08:46:46;;;;;;;32.53;12.00;;;;;;;;;;4916969;29;20165;-59
2022/06/30 08:49:12;;;;;;;50.10;12.57;;;;;;;;;;4920333;29;20119;-58
2022/06/30 08:51:42;;;;;;;44.97;13.10;;;;;;;;;;4914936;29;20047;-58
2022/06/30 08:54:10;;;;;;;34.72;12.02;;;;;;;;;;4917203;29;20040;-58
2022/06/30 08:56:36;;;;;;;48.15;13.70;;;;;;;;;;4917529;29;20429;-59
2022/06/30 08:59:04;;;;;;;28.30;11.48;;;;;;;;;;4900985;29;20044;-58
2022/06/30 09:01:31;;;;;;;42.53;13.23;;;;;;;;;;4916732;29;20050;-59
2022/06/30 09:03:58;;;;;;;35.63;12.73;;;;;;;;;;4901736;29;20052;-58
2022/06/30 09:06:25;;;;;;;33.25;11.82;;;;;;;;;;4915058;29;20479;-58
2022/06/30 09:09:02;;;;;;;113.93;17.73;;;;;;;;;;4913063;29;20450;-58
2022/06/30 09:11:48;;;;;;;103.47;17.25;;;;;;;;;;4915924;29;20051;-58
2022/06/30 09:14:36;;;;;;;105.57;16.67;;;;;;;;;;4910183;29;20104;-59
2022/06/30 09:17:06;;;;;;;60.55;14.13;;;;;;;;;;4916156;29;20048;-59
2022/06/30 09:19:35;;;;;;;66.55;13.73;;;;;;;;;;4914155;29;20127;-60
2022/06/30 09:22:05;;;;;;;45.67;12.30;;;;;;;;;;4898565;29;20055;-58
2022/06/30 09:24:33;;;;;;;88.95;15.85;;;;;;;;;;4912774;29;20080;-58
2022/06/30 09:27:12;;;;;;;64.40;13.43;;;;;;;;;;4914032;29;20052;-58
2022/06/30 09:29:48;;;;;;;72.93;13.68;;;;;;;;;;4897615;29;20076;-58
2022/06/30 09:32:54;;;;;;;95.45;15.75;;;;;;;;;;4914610;29;20112;-58
2022/06/30 09:35:24;;;;;;;43.80;11.90;;;;;;;;;;4913834;29;20087;-58
2022/06/30 09:37:59;;;;;;;30.77;10.50;;;;;;;;;;4898768;29;20115;-58
2022/06/30 09:40:33;;;;;;;34.45;11.25;;;;;;;;;;4915495;29;20107;-59
2022/06/30 09:43:00;;;;;;;62.80;13.43;;;;;;;;;;4915480;29;20092;-58
2022/06/30 09:45:37;;;;;;;34.78;11.15;;;;;;;;;;4915787;29;20115;-58
2022/06/30 09:48:11;;;;;;;51.10;12.52;;;;;;;;;;4915904;29;20036;-58
2022/06/30 09:50:38;;;;;;;213.98;23.80;;;;;;;;;;4911800;29;20063;-58
2022/06/30 09:53:04;;;;;;;37.65;12.23;;;;;;;;;;4916146;29;20390;-58
2022/06/30 09:55:38;;;;;;;34.90;11.20;;;;;;;;;;4915942;29;20138;-58
2022/06/30 09:58:05;;;;;;;32.13;11.85;;;;;;;;;;4914660;29;20050;-58
2022/06/30 10:00:41;;;;;;;37.53;11.45;;;;;;;;;;4915790;29;20040;-58
2022/06/30 10:03:08;;;;;;;40.75;11.25;;;;;;;;;;4914404;29;20040;-58
2022/06/30 10:05:34;;;;;;;56.47;13.27;;;;;;;;;;4915182;29;20084;-58
2022/06/30 10:08:01;;;;;;;31.27;11.65;;;;;;;;;;4916467;29;20078;-58
2022/06/30 10:10:29;;;;;;;27.70;9.98;;;;;;;;;;4898262;29;20044;-58
2022/06/30 10:12:56;;;;;;;71.43;12.30;;;;;;;;;;4915370;29;20107;-57
2022/06/30 10:15:23;;;;;;;30.85;10.25;;;;;;;;;;4914814;29;20064;-57
2022/06/30 10:17:53;;;;;;;38.15;12.68;;;;;;;;;;4882998;29;20091;-58
2022/06/30 10:20:20;;;;;;;39.15;11.25;;;;;;;;;;4915898;29;20044;-58
2022/06/30 10:22:47;;;;;;;52.30;11.65;;;;;;;;;;4914162;29;20499;-70
2022/06/30 10:25:15;;;;;;;50.00;11.50;;;;;;;;;;4913217;29;20552;-82
2022/06/30 10:27:41;;;;;;;49.97;12.85;;;;;;;;;;4914780;29;20466;-76
2022/06/30 10:30:13;;;;;;;70.78;14.27;;;;;;;;;;4897596;29;20048;-69
2022/06/30 10:32:56;;;;;;;67.28;13.35;;;;;;;;;;4914948;29;20044;-75
2022/06/30 10:35:35;;;;;;;29.83;9.20;;;;;;;;;;4916214;29;20044;-79
2022/06/30 10:38:06;;;;;;;67.60;12.10;;;;;;;;;;4914337;29;20048;-80
2022/06/30 10:40:52;;;;;;;60.22;12.10;;;;;;;;;;4913545;29;20125;-81
2022/06/30 10:43:19;;;;;;;30.08;10.45;;;;;;;;;;4913661;29;20048;-82
2022/06/30 10:46:05;;;;;;;89.28;14.07;;;;;;;;;;4913525;29;20124;-82
2022/06/30 10:48:50;;;;;;;50.45;11.23;;;;;;;;;;4911856;29;20060;-80
2022/06/30 10:51:17;;;;;;;52.08;11.02;;;;;;;;;;4912495;29;20131;-82
2022/06/30 10:53:44;;;;;;;40.60;10.98;;;;;;;;;;4908420;29;20048;-83
2022/06/30 10:56:16;;;;;;;227.60;22.83;;;;;;;;;;4916231;29;20054;-83
2022/06/30 10:59:01;;;;;;;39.25;11.27;;;;;;;;;;4914250;29;20133;-83
2022/06/30 11:01:28;;;;;;;38.45;10.95;;;;;;;;;;4913958;29;20628;-82
2022/06/30 11:03:56;;;;;;;34.92;10.77;;;;;;;;;;4913965;29;20060;-83
2022/06/30 11:06:26;;;;;;;33.13;11.07;;;;;;;;;;4914467;29;20052;-83
2022/06/30 11:08:57;;;;;;;33.65;10.95;;;;;;;;;;4898073;29;20067;-81
2022/06/30 11:11:24;;;;;;;39.77;11.20;;;;;;;;;;4911309;29;20056;-82
2022/06/30 11:14:00;;;;;;;32.40;11.40;;;;;;;;;;4915172;29;20286;-82
2022/06/30 11:16:27;;;;;;;65.15;12.60;;;;;;;;;;4897453;29;20048;-82
2022/06/30 11:22:29;;;;;;;24.05;10.90;;;;;;;;;;4895684;29;20473;-82
2022/06/30 11:25:03;;;;;;;49.78;11.65;;;;;;;;;;4896317;29;20124;-83
2022/06/30 11:27:33;;;;;;;30.63;11.75;;;;;;;;;;4895164;29;20498;-82
2022/06/30 11:30:00;;;;;;;32.72;11.82;;;;;;;;;;4895845;29;20068;-82
2022/06/30 11:32:28;;;;;;;73.85;13.88;;;;;;;;;;4895882;29;20076;-83
2022/06/30 11:34:56;;;;;;;35.80;10.63;;;;;;;;;;4896189;29;20136;-82
2022/06/30 11:37:26;;;;;;;32.72;11.30;;;;;;;;;;4895734;29;20068;-82
2022/06/30 11:40:06;;;;;;;161.88;17.80;;;;;;;;;;4895485;29;20049;-82
2022/06/30 11:42:33;;;;;;;326.15;26.77;;;;;;;;;;4895120;29;20476;-83
2022/06/30 11:44:59;;;;;;;53.47;11.18;;;;;;;;;;4895230;29;20093;-81
2022/06/30 11:47:28;;;;;;;39.33;10.77;;;;;;;;;;4895610;29;20040;-83
2022/06/30 11:49:57;;;;;;;59.00;11.38;;;;;;;;;;4895726;29;20044;-82
2022/06/30 11:52:23;;;;;;;35.70;9.35;;;;;;;;;;4893047;29;20056;-82
2022/06/30 11:54:50;;;;;;;42.25;9.80;;;;;;;;;;4893409;29;20077;-81
2022/06/30 11:57:18;;;;;;;75.53;12.88;;;;;;;;;;4893409;29;20060;-82
2022/06/30 11:59:52;;;;;;;51.80;12.40;;;;;;;;;;4892918;29;20096;-83
2022/06/30 12:02:19;;;;;;;50.88;12.18;;;;;;;;;;4894782;29;20124;-81
2022/06/30 12:04:50;;;;;;;44.17;10.85;;;;;;;;;;4893374;29;20049;-83
2022/06/30 12:07:18;;;;;;;33.00;10.82;;;;;;;;;;4892441;29;20040;-82
2022/06/30 12:09:45;;;;;;;46.70;11.63;;;;;;;;;;4877432;29;20037;-82
2022/06/30 12:12:12;;;;;;;44.38;10.95;;;;;;;;;;4893919;29;20560;-82
2022/06/30 12:14:42;;;;;;;46.17;10.65;;;;;;;;;;4894333;29;20529;-83
2022/06/30 12:17:10;;;;;;;32.30;10.45;;;;;;;;;;4894298;29;20052;-82
2022/06/30 12:19:38;;;;;;;48.35;10.85;;;;;;;;;;4894089;29;20047;-83
2022/06/30 12:22:07;;;;;;;27.88;9.63;;;;;;;;;;4894221;29;20388;-82
2022/06/30 12:24:38;;;;;;;58.85;11.80;;;;;;;;;;4888643;29;20048;-82
2022/06/30 12:27:05;;;;;;;102.72;15.10;;;;;;;;;;4898344;29;20053;-82
2022/06/30 12:29:32;;;;;;;99.40;13.98;;;;;;;;;;4897652;29;20170;-82
2022/06/30 12:32:00;;;;;;;44.60;11.07;;;;;;;;;;4899487;29;20052;-82
2022/06/30 12:34:26;;;;;;;38.80;10.25;;;;;;;;;;4901253;29;20572;-82
2022/06/30 12:36:58;;;;;;;29.95;10.18;;;;;;;;;;4898495;29;20052;-82
2022/06/30 12:39:24;;;;;;;23.52;9.32;;;;;;;;;;4898529;29;20037;-82
2022/06/30 12:41:59;;;;;;;32.10;10.50;;;;;;;;;;4898340;29;20567;-83
2022/06/30 12:44:32;;;;;;;24.08;10.43;;;;;;;;;;4895135;29;20076;-83
2022/06/30 12:47:10;;;;;;;212.70;23.08;;;;;;;;;;4897928;29;20159;-83
2022/06/30 12:49:37;;;;;;;54.53;12.07;;;;;;;;;;4898116;29;20454;-83
2022/06/30 12:52:14;;;;;;;43.80;11.50;;;;;;;;;;4898188;29;20572;-83
2022/06/30 12:54:50;;;;;;;43.90;11.13;;;;;;;;;;4897828;29;20115;-83
2022/06/30 12:57:18;;;;;;;49.35;12.07;;;;;;;;;;4898137;29;20192;-81
2022/06/30 12:59:45;;;;;;;49.55;10.75;;;;;;;;;;4897850;29;20135;-81
2022/06/30 13:02:16;;;;;;;36.20;10.05;;;;;;;;;;4898500;29;20422;-81
2022/06/30 13:04:47;;;;;;;50.83;11.52;;;;;;;;;;4898199;29;20047;-82
2022/06/30 13:07:13;;;;;;;49.45;11.98;;;;;;;;;;4897673;29;20041;-78
2022/06/30 13:09:43;;;;;;;35.33;10.52;;;;;;;;;;4895320;29;20124;-78
2022/06/30 13:12:10;;;;;;;53.63;11.05;;;;;;;;;;4894446;29;20091;-78
2022/06/30 13:14:36;;;;;;;43.40;10.60;;;;;;;;;;4899796;29;20092;-78
2022/06/30 13:17:04;;;;;;;95.38;13.50;;;;;;;;;;4897424;29;20044;-78
2022/06/30 13:19:31;;;;;;;60.28;11.55;;;;;;;;;;4896175;29;20032;-78
2022/06/30 13:21:58;;;;;;;52.70;11.57;;;;;;;;;;4899424;29;20060;-77
2022/06/30 13:24:31;;;;;;;74.47;12.63;;;;;;;;;;4896497;29;20045;-78
2022/06/30 13:27:02;;;;;;;68.40;12.63;;;;;;;;;;4896455;29;20051;-77
2022/06/30 13:29:30;;;;;;;95.35;13.82;;;;;;;;;;4898788;29;20075;-77
2022/06/30 13:31:56;;;;;;;38.85;9.55;;;;;;;;;;4897952;29;20079;-77
2022/06/30 13:34:24;;;;;;;26.80;9.68;;;;;;;;;;4896377;29;20615;-80
2022/06/30 13:36:52;;;;;;;42.67;10.68;;;;;;;;;;4897686;29;20060;-80
2022/06/30 13:39:19;;;;;;;14.43;8.48;;;;;;;;;;4897697;29;20482;-81
2022/06/30 13:41:45;;;;;;;67.10;13.10;;;;;;;;;;4897370;29;20045;-81
2022/06/30 13:44:12;;;;;;;32.33;9.63;;;;;;;;;;4897788;29;20124;-80
2022/06/30 13:46:38;;;;;;;35.80;10.57;;;;;;;;;;4897487;29;20127;-79
2022/06/30 13:49:05;;;;;;;54.08;12.60;;;;;;;;;;4896186;29;20045;-79
2022/06/30 13:51:35;;;;;;;72.65;13.60;;;;;;;;;;4897056;29;20108;-79
2022/06/30 13:54:02;;;;;;;40.85;10.15;;;;;;;;;;4897466;29;20041;-80
2022/06/30 13:56:29;;;;;;;52.53;11.35;;;;;;;;;;4897459;29;20566;-79
2022/06/30 13:58:56;;;;;;;39.47;10.98;;;;;;;;;;4897888;29;20043;-79
2022/06/30 14:01:22;;;;;;;25.45;9.02;;;;;;;;;;4897125;29;20209;-80
2022/06/30 14:03:50;;;;;;;33.40;8.93;;;;;;;;;;4901199;29;20064;-77
2022/06/30 14:06:16;;;;;;;30.92;9.85;;;;;;;;;;4896799;29;20540;-74
2022/06/30 14:08:43;;;;;;;211.98;22.20;;;;;;;;;;4897484;29;20473;-72
2022/06/30 14:11:09;;;;;;;54.47;11.85;;;;;;;;;;4897755;29;20056;-73
2022/06/30 14:13:36;;;;;;;33.17;10.45;;;;;;;;;;4895732;29;20051;-73
2022/06/30 14:16:20;;;;;;;37.00;10.82;;;;;;;;;;4896695;29;20084;-71
2022/06/30 14:18:47;;;;;;;20.65;9.90;;;;;;;;;;4896629;29;20036;-72
2022/06/30 14:21:13;;;;;;;43.80;11.23;;;;;;;;;;4896748;29;20569;-76
2022/06/30 14:23:40;;;;;;;48.20;10.60;;;;;;;;;;4897797;29;20517;-71
2022/06/30 14:26:07;;;;;;;53.45;11.25;;;;;;;;;;4897855;29;20557;-70
2022/06/30 14:28:33;;;;;;;36.67;10.70;;;;;;;;;;4894375;29;20072;-79
2022/06/30 14:31:00;;;;;;;26.35;9.30;;;;;;;;;;4896828;29;20048;-73
2022/06/30 14:33:26;;;;;;;36.13;10.30;;;;;;;;;;4896351;29;20619;-72
2022/06/30 14:35:53;;;;;;;47.88;11.38;;;;;;;;;;4896539;29;20051;-75
2022/06/30 14:38:20;;;;;;;34.08;10.38;;;;;;;;;;4897005;29;20076;-73
2022/06/30 14:40:46;;;;;;;35.50;10.43;;;;;;;;;;4896156;29;20493;-73
2022/06/30 14:43:13;;;;;;;68.82;12.70;;;;;;;;;;4896294;29;20036;-75
2022/06/30 14:45:40;;;;;;;129.63;15.40;;;;;;;;;;4894276;29;20049;-74